createdAt,value
2019-01-05T00:02:56.911Z,4.35
2019-01-05T00:07:23.087Z,4.43
2019-01-05T00:11:53.308Z,4.45
2019-01-05T00:16:34.619Z,4.39
2019-01-05T00:21:09.303Z,4.23
2019-01-05T00:25:38.383Z,4.32
2019-01-05T00:30:09.857Z,4.38
2019-01-05T00:34:51.858Z,4.26
2019-01-05T00:39:21.282Z,4.34
2019-01-05T00:43:50.233Z,4.28
2019-01-05T00:48:26.993Z,4.36
2019-01-05T00:52:54.056Z,4.29
2019-01-05T00:57:20.572Z,4.26
2019-01-05T01:01:59.102Z,4.24
2019-01-05T01:06:43.381Z,4.36
2019-01-05T01:11:10.641Z,4.33
2019-01-05T01:15:34.926Z,4.32
2019-01-05T01:20:00.782Z,4.31
2019-01-05T01:24:27.605Z,4.32
2019-01-05T01:28:53.135Z,4.31
2019-01-05T01:33:38.227Z,4.34
2019-01-05T01:38:41.293Z,4.35
2019-01-05T01:43:10.106Z,4.35
2019-01-05T01:47:36.777Z,4.32
2019-01-05T01:52:04.118Z,4.40
2019-01-05T01:56:37.330Z,4.34
2019-01-05T02:01:03.727Z,4.38
2019-01-05T02:05:35.658Z,4.39
2019-01-05T02:10:03.553Z,4.36
2019-01-05T02:14:32.966Z,4.47
2019-01-05T02:19:30.119Z,4.46
2019-01-05T02:24:54.390Z,4.41
2019-01-05T02:30:30.780Z,4.40
2019-01-05T02:35:36.857Z,4.38
2019-01-05T02:41:11.190Z,4.45
2019-01-05T02:46:36.860Z,4.42
2019-01-05T02:51:42.226Z,4.40
2019-01-05T02:57:20.108Z,4.48
2019-01-05T03:02:50.136Z,4.35
2019-01-05T03:08:18.656Z,4.41
2019-01-05T03:13:34.677Z,4.27
2019-01-05T03:18:57.936Z,4.29
2019-01-05T03:24:38.127Z,4.39
2019-01-05T03:29:51.204Z,4.40
2019-01-05T03:35:09.630Z,4.29
2019-01-05T03:40:13.831Z,4.12
2019-01-05T03:45:31.482Z,4.19
2019-01-05T03:50:54.584Z,4.09
2019-01-05T03:56:25.107Z,4.10
2019-01-05T04:01:47.555Z,4.03
2019-01-05T04:07:16.702Z,4.06
2019-01-05T04:13:26.021Z,4.01
2019-01-05T04:18:47.362Z,4.03
2019-01-05T04:24:01.919Z,4.09
2019-01-05T04:29:27.480Z,3.99
2019-01-05T04:34:55.739Z,3.96
2019-01-05T04:40:39.208Z,4.00
2019-01-05T04:46:13.818Z,3.95
2019-01-05T04:52:01.314Z,3.90
2019-01-05T04:57:36.388Z,3.92
2019-01-05T05:02:46.592Z,3.88
2019-01-05T05:08:23.823Z,3.90
2019-01-05T05:13:31.450Z,3.83
2019-01-05T05:18:42.206Z,3.76
2019-01-05T05:24:55.316Z,3.81
2019-01-05T05:30:29.025Z,3.80
2019-01-05T05:36:36.034Z,3.89
2019-01-05T05:42:01.517Z,3.87
2019-01-05T05:47:30.610Z,3.90
2019-01-05T05:58:35.647Z,4.01
2019-01-05T06:04:00.998Z,4.05
2019-01-05T06:09:35.205Z,4.07
2019-01-05T06:15:03.745Z,4.14
2019-01-05T06:20:46.146Z,4.23
2019-01-05T06:26:28.515Z,4.32
2019-01-05T06:31:47.279Z,4.34
2019-01-05T06:37:06.159Z,4.40
2019-01-05T06:42:55.368Z,4.51
2019-01-05T06:48:39.132Z,4.56
2019-01-05T06:54:04.733Z,4.63
2019-01-05T06:59:59.621Z,4.72
2019-01-05T07:05:17.404Z,4.62
2019-01-05T07:10:44.218Z,4.65
2019-01-05T07:16:46.611Z,4.75
2019-01-05T07:22:16.657Z,4.74
2019-01-05T07:27:48.329Z,4.74
2019-01-05T07:33:30.623Z,4.79
2019-01-05T07:39:11.276Z,4.87
2019-01-05T07:44:44.458Z,4.76
2019-01-05T07:50:19.757Z,4.76
2019-01-05T07:56:23.725Z,4.83
2019-01-05T08:02:02.115Z,4.79
2019-01-05T08:07:36.449Z,4.86
2019-01-05T08:13:20.958Z,4.97
2019-01-05T08:18:53.930Z,4.92
2019-01-05T08:24:27.239Z,5.04
2019-01-05T08:30:04.715Z,5.02
2019-01-05T08:35:27.109Z,5.05
2019-01-05T08:41:08.807Z,5.55
2019-01-05T08:46:37.674Z,5.71
2019-01-05T08:52:09.237Z,5.64
2019-01-05T08:57:35.754Z,5.92
2019-01-05T09:03:08.014Z,6.28
2019-01-05T09:08:56.972Z,6.62
2019-01-05T09:14:18.414Z,6.88
2019-01-05T09:20:13.135Z,6.98
2019-01-05T09:25:46.204Z,7.16
2019-01-05T09:31:32.019Z,7.21
2019-01-05T09:37:07.501Z,7.30
2019-01-05T09:42:39.257Z,7.54
2019-01-05T09:48:15.465Z,7.63
2019-01-05T09:54:02.890Z,7.52
2019-01-05T09:59:19.389Z,7.64
2019-01-05T10:05:12.190Z,7.82
2019-01-05T10:10:19.532Z,7.90
2019-01-05T10:15:53.699Z,7.75
2019-01-05T10:20:47.512Z,7.83
2019-01-05T10:26:09.162Z,7.83
2019-01-05T10:31:37.121Z,7.98
2019-01-05T10:36:45.680Z,7.96
2019-01-05T10:42:08.645Z,8.00
2019-01-05T10:47:27.860Z,7.95
2019-01-05T10:53:01.048Z,7.94
2019-01-05T10:58:40.722Z,7.96
2019-01-05T11:03:49.196Z,8.19
2019-01-05T11:09:10.498Z,8.50
2019-01-05T11:14:49.152Z,8.67
2019-01-05T11:20:14.150Z,8.76
2019-01-05T11:25:51.595Z,8.70
2019-01-05T11:31:39.277Z,9.14
2019-01-05T11:37:01.163Z,9.04
2019-01-05T11:42:45.791Z,9.00
2019-01-05T11:48:17.942Z,8.81
2019-01-05T11:54:07.707Z,8.99
2019-01-05T11:59:37.599Z,8.88
2019-01-05T12:04:44.930Z,8.88
2019-01-05T12:10:02.257Z,8.66
2019-01-05T12:15:09.506Z,8.99
2019-01-05T12:20:33.757Z,8.88
2019-01-05T12:26:03.121Z,8.96
2019-01-05T12:31:34.040Z,8.92
2019-01-05T12:37:04.147Z,8.98
2019-01-05T12:42:36.520Z,8.87
2019-01-05T12:48:14.139Z,8.93
2019-01-05T12:53:47.109Z,8.80
2019-01-05T12:59:29.584Z,8.74
2019-01-05T13:05:03.207Z,8.76
2019-01-05T13:10:47.436Z,8.73
2019-01-05T13:16:38.559Z,8.76
2019-01-05T13:21:53.939Z,8.74
2019-01-05T13:27:23.191Z,8.84
2019-01-05T13:33:27.226Z,8.74
2019-01-05T13:39:10.241Z,8.69
2019-01-05T13:44:59.114Z,8.55
2019-01-05T13:50:34.662Z,8.62
2019-01-05T13:55:09.536Z,8.56
2019-01-05T13:59:38.674Z,8.46
2019-01-05T14:04:03.308Z,8.55
2019-01-05T14:08:27.848Z,8.44
2019-01-05T14:12:59.488Z,8.51
2019-01-05T14:17:24.227Z,8.47
2019-01-05T14:21:47.390Z,8.46
2019-01-05T14:26:25.382Z,8.40
2019-01-05T14:31:00.378Z,8.35
2019-01-05T14:35:24.643Z,8.31
2019-01-05T14:39:49.582Z,8.29
2019-01-05T14:44:27.828Z,8.27
2019-01-05T14:48:53.751Z,8.23
2019-01-05T14:53:19.781Z,8.37
2019-01-05T14:57:52.067Z,8.24
2019-01-05T15:02:16.714Z,8.25
2019-01-05T15:06:42.621Z,8.26
2019-01-05T15:11:11.242Z,8.49
2019-01-05T15:15:40.035Z,8.62
2019-01-05T15:20:12.974Z,8.46
2019-01-05T15:24:36.303Z,8.29
2019-01-05T15:29:02.289Z,8.16
2019-01-05T15:33:31.139Z,8.07
2019-01-05T15:37:56.963Z,8.08
2019-01-05T15:42:22.779Z,7.98
2019-01-05T15:46:54.733Z,8.10
2019-01-05T15:51:35.105Z,8.09
2019-01-05T15:56:01.033Z,8.08
2019-01-05T16:00:30.153Z,7.98
2019-01-05T16:04:52.046Z,7.97
2019-01-05T16:09:15.292Z,7.93
2019-01-05T16:13:44.288Z,7.94
2019-01-05T16:18:25.632Z,7.94
2019-01-05T16:23:01.262Z,8.07
2019-01-05T16:27:36.852Z,7.94
2019-01-05T16:31:59.280Z,7.96
2019-01-05T16:36:23.821Z,7.91
2019-01-05T16:40:48.823Z,7.90
2019-01-05T16:45:14.337Z,7.96
2019-01-05T16:49:46.732Z,7.96
2019-01-05T16:54:27.237Z,7.95
2019-01-05T16:58:59.714Z,7.99
2019-01-05T17:03:34.748Z,7.90
2019-01-05T17:08:12.504Z,7.86
2019-01-05T17:12:39.966Z,7.92
2019-01-05T17:17:13.501Z,7.89
2019-01-05T17:21:40.518Z,7.85
2019-01-05T17:26:07.171Z,7.81
2019-01-05T17:30:29.218Z,7.83
2019-01-05T17:34:55.213Z,7.74
2019-01-05T17:39:28.886Z,7.73
2019-01-05T17:43:56.540Z,7.68
2019-01-05T17:48:20.083Z,7.69
2019-01-05T17:52:52.572Z,7.58
2019-01-05T17:57:19.810Z,7.52
2019-01-05T18:01:56.809Z,7.68
2019-01-05T18:06:21.489Z,7.67
2019-01-05T18:10:57.553Z,7.64
2019-01-05T18:15:21.848Z,7.63
2019-01-05T18:19:46.744Z,7.62
2019-01-05T18:24:24.991Z,7.59
2019-01-05T18:28:53.180Z,7.56
2019-01-05T18:33:28.234Z,7.56
2019-01-05T18:37:48.635Z,7.59
2019-01-05T18:42:14.504Z,7.67
2019-01-05T18:46:40.679Z,7.71
2019-01-05T18:51:09.624Z,7.68
2019-01-05T18:55:53.909Z,7.65
2019-01-05T19:00:18.497Z,7.65
2019-01-05T19:04:58.096Z,7.61
2019-01-05T19:09:35.770Z,7.72
2019-01-05T19:14:07.562Z,7.60
2019-01-05T19:18:48.729Z,7.72
2019-01-05T19:23:21.216Z,7.64
2019-01-05T19:27:48.857Z,7.67
2019-01-05T19:32:14.962Z,7.64
2019-01-05T19:37:05.692Z,7.77
2019-01-05T19:41:48.159Z,7.72
2019-01-05T19:46:22.185Z,7.69
2019-01-05T19:50:46.913Z,7.68
2019-01-05T19:55:30.335Z,7.87
2019-01-05T20:00:10.891Z,7.81
2019-01-05T20:04:53.424Z,7.66
2019-01-05T20:09:20.663Z,7.62
2019-01-05T20:13:45.758Z,7.64
2019-01-05T20:18:14.441Z,7.59
2019-01-05T20:22:44.180Z,7.52
2019-01-05T20:27:28.849Z,7.57
2019-01-05T20:31:58.732Z,7.55
2019-01-05T20:36:44.258Z,7.46
2019-01-05T20:41:10.231Z,7.49
2019-01-05T20:45:34.869Z,7.52
2019-01-05T20:50:15.713Z,7.44
2019-01-05T20:54:38.067Z,7.44
2019-01-05T20:59:04.889Z,7.33
2019-01-05T21:03:29.505Z,7.37
2019-01-05T21:07:56.081Z,7.44
2019-01-05T21:12:22.278Z,7.44
2019-01-05T21:16:52.821Z,7.40
2019-01-05T21:21:23.625Z,7.38
2019-01-05T21:25:49.719Z,7.40
2019-01-05T21:30:30.824Z,7.44
2019-01-05T21:34:56.836Z,7.42
2019-01-05T21:39:34.529Z,7.41
2019-01-05T21:43:59.169Z,7.28
2019-01-05T21:48:34.846Z,7.38
2019-01-05T21:52:59.348Z,7.32
2019-01-05T21:57:24.463Z,7.25
2019-01-05T22:01:43.616Z,7.35
2019-01-05T22:06:11.572Z,7.25
2019-01-05T22:10:36.649Z,7.23
2019-01-05T22:14:59.194Z,7.32
2019-01-05T22:19:24.699Z,7.27
2019-01-05T22:24:05.802Z,7.26
2019-01-05T22:28:43.973Z,7.27
2019-01-05T22:33:09.537Z,7.25
2019-01-05T22:37:36.290Z,7.19
2019-01-05T22:42:02.390Z,7.25
2019-01-05T22:46:33.831Z,7.22
2019-01-05T22:51:00.230Z,7.23
2019-01-05T22:55:25.453Z,7.24
2019-01-05T22:59:51.833Z,7.25
2019-01-05T23:04:20.121Z,7.24
2019-01-05T23:08:46.798Z,7.35
2019-01-05T23:13:11.747Z,7.30
2019-01-05T23:17:49.896Z,7.31
2019-01-05T23:22:16.292Z,7.39
2019-01-05T23:26:43.516Z,7.34
2019-01-05T23:31:08.861Z,7.44
2019-01-05T23:35:51.036Z,7.40
2019-01-05T23:40:23.541Z,7.45
2019-01-05T23:44:49.453Z,7.47
2019-01-05T23:49:27.668Z,7.42
2019-01-05T23:53:52.215Z,7.46
2019-01-05T23:58:46.279Z,7.55
